Time;durP1;ratioP1;P1;durP2;ratioP2;P2;SDS_P1;SDS_P2;PMS_P1;PMS_P2;Temp;Humidity;BMP_temperature;BMP_pressure;BME280_temperature;BME280_humidity;BME280_pressure;Samples;Min_cycle;Max_cycle;Signal;HPM_P1;HPM_P2
2021/03/10 00:02:18;;;;;;;50.78;21.77;;;5.10;99.90;;;;;;5014280;28;20034;-67
2021/03/10 00:04:44;;;;;;;55.85;24.30;;;5.20;99.90;;;;;;5014074;28;20033;-67
2021/03/10 00:07:10;;;;;;;52.17;23.20;;;5.20;99.90;;;;;;5014332;28;20061;-67
2021/03/10 00:09:36;;;;;;;54.40;23.15;;;5.20;99.90;;;;;;5014018;28;20045;-67
2021/03/10 00:12:02;;;;;;;54.67;22.92;;;5.20;99.90;;;;;;5014034;28;20092;-67
2021/03/10 00:14:27;;;;;;;51.72;23.58;;;5.20;99.90;;;;;;5013846;28;20030;-67
2021/03/10 00:16:53;;;;;;;58.88;24.80;;;5.30;99.90;;;;;;5013891;28;20476;-66
2021/03/10 00:19:19;;;;;;;47.92;23.02;;;5.30;99.90;;;;;;5013949;28;20510;-67
2021/03/10 00:21:45;;;;;;;52.05;21.33;;;5.30;99.90;;;;;;5013779;28;20487;-67
2021/03/10 00:24:11;;;;;;;51.92;22.65;;;5.40;99.90;;;;;;5014201;28;20030;-66
2021/03/10 00:26:37;;;;;;;51.08;22.83;;;5.40;99.90;;;;;;5013010;28;20076;-67
2021/03/10 00:29:03;;;;;;;53.70;23.70;;;5.30;99.90;;;;;;5014116;28;20025;-66
2021/03/10 00:31:28;;;;;;;51.55;23.25;;;5.20;99.90;;;;;;5013240;28;20115;-66
2021/03/10 00:33:54;;;;;;;51.50;23.85;;;5.20;99.90;;;;;;5014072;28;20457;-67
2021/03/10 00:36:20;;;;;;;69.72;26.70;;;5.20;99.90;;;;;;5013809;28;20033;-66
2021/03/10 00:38:45;;;;;;;64.45;26.80;;;5.10;99.90;;;;;;4996004;28;20030;-67
2021/03/10 00:41:11;;;;;;;58.10;25.13;;;5.10;99.90;;;;;;5013873;28;20063;-66
2021/03/10 00:43:37;;;;;;;71.32;27.38;;;5.20;99.90;;;;;;5013475;28;20395;-66
2021/03/10 00:46:02;;;;;;;65.20;25.40;;;5.20;99.90;;;;;;4996133;28;20040;-66
2021/03/10 00:48:28;;;;;;;67.50;25.48;;;5.10;99.90;;;;;;5013735;28;20037;-66
2021/03/10 00:50:54;;;;;;;57.55;24.63;;;5.10;99.90;;;;;;4996056;28;20034;-66
2021/03/10 00:53:20;;;;;;;62.22;26.05;;;5.10;99.90;;;;;;5013618;28;20022;-66
2021/03/10 00:55:46;;;;;;;59.88;25.55;;;5.10;99.90;;;;;;5013400;28;20045;-66
2021/03/10 00:58:11;;;;;;;61.75;25.63;;;5.10;99.90;;;;;;5013621;28;20092;-66
2021/03/10 01:00:37;;;;;;;65.07;25.67;;;5.00;99.90;;;;;;5013375;28;20112;-66
2021/03/10 01:03:03;;;;;;;58.78;24.08;;;5.10;99.90;;;;;;4995563;28;20049;-66
2021/03/10 01:05:29;;;;;;;62.83;25.63;;;5.00;99.90;;;;;;5013213;28;20107;-65
2021/03/10 01:07:54;;;;;;;61.28;25.20;;;5.00;99.90;;;;;;5012836;28;20042;-66
2021/03/10 01:10:20;;;;;;;56.13;25.45;;;5.00;99.90;;;;;;5013167;28;20037;-66
2021/03/10 01:12:46;;;;;;;61.42;24.40;;;5.00;99.90;;;;;;5013144;28;20053;-66
2021/03/10 01:15:17;;;;;;;66.93;26.17;;;5.00;99.90;;;;;;5013251;28;20080;-66
2021/03/10 01:17:44;;;;;;;54.58;24.98;;;5.00;99.90;;;;;;5013122;28;20049;-66
2021/03/10 01:20:16;;;;;;;65.97;25.15;;;5.00;99.90;;;;;;5013092;28;20176;-66
2021/03/10 01:22:42;;;;;;;58.22;25.55;;;5.00;99.90;;;;;;5013079;28;20026;-66
2021/03/10 01:25:09;;;;;;;62.45;25.23;;;5.00;99.90;;;;;;5012843;28;20034;-66
2021/03/10 01:27:35;;;;;;;65.28;26.10;;;4.90;99.90;;;;;;5012937;28;20120;-66
2021/03/10 01:30:06;;;;;;;56.45;25.10;;;5.00;99.90;;;;;;5012722;28;20498;-66
2021/03/10 01:32:32;;;;;;;;;;;5.00;99.90;;;;;;5013491;28;20052;-66
2021/03/10 01:34:58;;;;;;;51.78;22.15;;;5.00;99.90;;;;;;5012892;28;20354;-66
2021/03/10 01:37:23;;;;;;;51.38;23.52;;;5.00;99.90;;;;;;5012611;28;20084;-66
2021/03/10 01:39:49;;;;;;;55.38;22.80;;;5.10;99.90;;;;;;5012519;28;20031;-66
2021/03/10 01:42:15;;;;;;;48.70;23.55;;;5.10;99.90;;;;;;5012819;28;20121;-66
2021/03/10 01:44:41;;;;;;;54.40;23.60;;;5.20;99.90;;;;;;5012516;28;20164;-66
2021/03/10 01:47:08;;;;;;;62.08;24.98;;;5.00;99.90;;;;;;5012871;28;20113;-65
2021/03/10 01:49:35;;;;;;;51.38;23.17;;;5.00;99.90;;;;;;4994777;28;20058;-66
2021/03/10 01:52:02;;;;;;;54.22;22.55;;;4.90;99.90;;;;;;4994935;28;20136;-66
2021/03/10 01:54:28;;;;;;;57.08;24.45;;;4.80;99.90;;;;;;5012791;28;20017;-64
2021/03/10 01:56:54;;;;;;;65.63;25.77;;;4.80;99.90;;;;;;4994731;28;20026;-64
2021/03/10 01:59:23;;;;;;;64.05;27.48;;;4.80;99.90;;;;;;5012757;28;20049;-64
2021/03/10 02:01:49;;;;;;;70.13;25.65;;;4.80;99.90;;;;;;5012417;28;20026;-64
2021/03/10 02:04:15;;;;;;;65.88;26.55;;;4.90;99.90;;;;;;5012406;28;20042;-64
2021/03/10 02:07:08;;;;;;;63.40;26.70;;;4.80;99.90;;;;;;4994777;28;20383;-65
2021/03/10 02:10:07;;;;;;;63.67;25.42;;;4.90;99.90;;;;;;5012539;28;20038;-65
2021/03/10 02:13:00;;;;;;;74.75;27.05;;;4.80;99.90;;;;;;4996859;28;20044;-65
2021/03/10 02:15:39;;;;;;;66.60;26.90;;;4.80;99.90;;;;;;5012514;28;20172;-65
2021/03/10 02:18:14;;;;;;;64.90;27.33;;;4.80;99.90;;;;;;5012148;28;20505;-65
2021/03/10 02:20:46;;;;;;;69.57;26.13;;;4.90;99.90;;;;;;4979427;28;20045;-65
2021/03/10 02:24:11;;;;;;;65.32;26.33;;;4.90;99.90;;;;;;5012117;28;20053;-65
2021/03/10 02:27:31;;;;;;;67.78;28.40;;;4.90;99.90;;;;;;4932406;29;20047;-65
2021/03/10 02:30:17;;;;;;;68.43;27.00;;;4.90;99.90;;;;;;4902724;29;20046;-65
2021/03/10 02:33:18;;;;;;;71.03;27.70;;;4.90;99.90;;;;;;4993128;28;20088;-65
2021/03/10 02:35:56;;;;;;;64.10;26.77;;;4.90;99.90;;;;;;4991328;28;20042;-66
2021/03/10 02:38:24;;;;;;;62.00;26.83;;;4.90;99.90;;;;;;5011998;28;20069;-65
2021/03/10 02:40:53;;;;;;;64.90;27.13;;;4.90;99.90;;;;;;5012232;28;20538;-65
2021/03/10 02:43:21;;;;;;;61.22;25.52;;;4.90;99.90;;;;;;5012246;28;20044;-65
2021/03/10 02:45:52;;;;;;;58.83;26.48;;;4.90;99.90;;;;;;5011827;28;20390;-65
2021/03/10 02:48:19;;;;;;;65.70;26.35;;;4.90;99.90;;;;;;5012007;28;20030;-65
2021/03/10 02:50:47;;;;;;;70.82;27.75;;;4.90;99.90;;;;;;5015015;28;20076;-65
2021/03/10 02:53:13;;;;;;;63.97;25.90;;;4.90;99.90;;;;;;5015924;28;20036;-65
2021/03/10 02:55:40;;;;;;;66.88;26.40;;;4.90;99.90;;;;;;4998140;28;20038;-65
2021/03/10 02:58:10;;;;;;;65.95;26.83;;;5.00;99.90;;;;;;5015724;28;20040;-65
2021/03/10 03:00:36;;;;;;;62.83;27.27;;;5.00;99.90;;;;;;5015634;28;20057;-65
2021/03/10 03:03:03;;;;;;;64.00;26.15;;;4.90;99.90;;;;;;5015325;28;20112;-65
2021/03/10 03:05:29;;;;;;;69.85;28.25;;;5.00;99.90;;;;;;5015639;28;20030;-65
2021/03/10 03:07:56;;;;;;;76.82;28.55;;;4.90;99.90;;;;;;5015200;28;20125;-65
2021/03/10 03:10:29;;;;;;;65.30;26.73;;;5.00;99.90;;;;;;4997719;28;20030;-65
2021/03/10 03:12:56;;;;;;;61.45;26.48;;;5.00;99.90;;;;;;5015435;28;20108;-65
2021/03/10 03:15:23;;;;;;;57.33;24.92;;;5.00;99.90;;;;;;5015457;28;20041;-65
2021/03/10 03:17:51;;;;;;;62.28;25.45;;;5.10;99.90;;;;;;5015188;28;20470;-65
2021/03/10 03:20:20;;;;;;;59.55;23.83;;;5.10;99.90;;;;;;4998031;28;20038;-65
2021/03/10 03:22:53;;;;;;;62.78;26.88;;;5.10;99.90;;;;;;5015303;28;20121;-65
2021/03/10 03:25:23;;;;;;;59.53;25.17;;;5.00;99.90;;;;;;4997576;28;20379;-65
2021/03/10 03:27:59;;;;;;;55.95;23.85;;;5.00;99.90;;;;;;5015184;28;20073;-65
2021/03/10 03:30:29;;;;;;;49.17;21.92;;;5.00;99.90;;;;;;5014865;28;20057;-65
2021/03/10 03:32:56;;;;;;;51.50;22.98;;;5.00;99.90;;;;;;4973382;28;20041;-64
2021/03/10 03:35:23;;;;;;;52.83;23.13;;;5.00;99.90;;;;;;4973362;28;20054;-66
2021/03/10 03:37:52;;;;;;;44.10;21.08;;;5.10;99.90;;;;;;4957157;28;20548;-64
2021/03/10 03:40:21;;;;;;;55.50;23.38;;;5.10;99.90;;;;;;4973298;28;20035;-64
2021/03/10 03:42:47;;;;;;;47.42;21.00;;;5.20;99.90;;;;;;4973277;28;20054;-65
2021/03/10 03:45:18;;;;;;;46.28;20.25;;;5.10;99.90;;;;;;4973326;28;20058;-65
2021/03/10 03:47:49;;;;;;;49.20;20.20;;;5.00;99.90;;;;;;4973163;28;20047;-65
2021/03/10 03:50:15;;;;;;;53.55;22.88;;;5.00;99.90;;;;;;4957305;28;20046;-65
2021/03/10 03:52:42;;;;;;;58.42;24.20;;;4.80;99.90;;;;;;4973205;28;20043;-64
2021/03/10 03:55:10;;;;;;;56.88;23.83;;;4.80;99.90;;;;;;4973132;28;20071;-64
2021/03/10 03:57:37;;;;;;;62.20;24.52;;;4.80;99.90;;;;;;4973090;28;20051;-64
2021/03/10 04:00:07;;;;;;;56.45;24.23;;;4.90;99.90;;;;;;4972707;28;20125;-64
2021/03/10 04:02:33;;;;;;;61.35;24.63;;;4.90;99.90;;;;;;4957271;28;20038;-64
2021/03/10 04:04:58;;;;;;;59.65;24.95;;;4.90;99.90;;;;;;5012546;28;20048;-65
2021/03/10 04:07:24;;;;;;;69.40;27.30;;;4.90;99.90;;;;;;5014269;28;20117;-65
2021/03/10 04:09:50;;;;;;;65.35;26.15;;;4.80;99.90;;;;;;5014166;28;20026;-64
2021/03/10 04:12:16;;;;;;;64.47;25.38;;;4.90;99.90;;;;;;5014473;28;20048;-65
2021/03/10 04:14:42;;;;;;;62.13;25.17;;;4.80;99.90;;;;;;5014161;28;20473;-65
2021/03/10 04:17:07;;;;;;;62.92;24.67;;;4.70;99.90;;;;;;5014179;28;20045;-66
2021/03/10 04:19:33;;;;;;;63.13;26.05;;;4.70;99.90;;;;;;5014206;28;20026;-66
2021/03/10 04:21:59;;;;;;;65.80;25.13;;;4.60;99.90;;;;;;5013914;28;20036;-65
2021/03/10 04:24:25;;;;;;;66.55;25.92;;;4.60;99.90;;;;;;5013917;28;20501;-65
2021/03/10 04:26:51;;;;;;;70.18;28.90;;;4.60;99.90;;;;;;5014066;28;20113;-65
2021/03/10 04:29:17;;;;;;;73.85;28.23;;;4.60;99.90;;;;;;5014000;28;20026;-65
2021/03/10 04:31:43;;;;;;;75.80;29.02;;;4.70;99.90;;;;;;5013589;28;20511;-65
2021/03/10 04:34:09;;;;;;;73.57;28.25;;;4.60;99.90;;;;;;5013846;28;20030;-65
2021/03/10 04:36:35;;;;;;;79.65;29.73;;;4.70;99.90;;;;;;4982660;28;20129;-65
2021/03/10 04:39:00;;;;;;;80.15;29.05;;;4.70;99.90;;;;;;4996296;28;20061;-65
2021/03/10 04:41:26;;;;;;;76.93;28.83;;;4.80;99.90;;;;;;4978106;28;20053;-65
2021/03/10 04:43:52;;;;;;;75.72;28.30;;;4.80;99.90;;;;;;5010808;28;20041;-65
2021/03/10 04:46:18;;;;;;;81.80;30.65;;;4.80;99.90;;;;;;5013160;28;20052;-65
2021/03/10 04:48:44;;;;;;;75.38;28.88;;;4.80;99.90;;;;;;5013581;28;20061;-65
2021/03/10 04:51:10;;;;;;;80.28;28.88;;;4.80;99.90;;;;;;4998505;28;20111;-68
2021/03/10 04:53:36;;;;;;;69.38;28.35;;;4.70;99.90;;;;;;4979651;28;20041;-69
2021/03/10 04:56:02;;;;;;;69.07;28.80;;;4.70;99.90;;;;;;5013480;28;20037;-68
2021/03/10 04:58:28;;;;;;;72.50;28.25;;;4.70;99.90;;;;;;4995789;28;20065;-68
2021/03/10 05:00:54;;;;;;;74.78;28.63;;;4.70;99.90;;;;;;5013254;28;20124;-68
2021/03/10 05:03:19;;;;;;;69.10;28.10;;;4.60;99.90;;;;;;5013459;28;20501;-68
2021/03/10 05:05:45;;;;;;;76.70;30.20;;;4.60;99.90;;;;;;5013004;28;20026;-68
2021/03/10 05:08:11;;;;;;;80.85;30.42;;;4.60;99.90;;;;;;5012143;28;20026;-68
2021/03/10 05:10:37;;;;;;;72.95;29.58;;;4.60;99.90;;;;;;5013259;28;20042;-68
2021/03/10 05:13:03;;;;;;;65.43;27.42;;;4.70;99.90;;;;;;4994857;28;20383;-68
2021/03/10 05:15:29;;;;;;;73.85;28.33;;;4.70;99.90;;;;;;5006465;28;20036;-66
2021/03/10 05:17:55;;;;;;;80.03;30.13;;;4.70;99.90;;;;;;5032694;28;20028;-67
2021/03/10 05:20:21;;;;;;;72.85;27.55;;;4.70;99.90;;;;;;5032475;28;20040;-65
2021/03/10 05:22:46;;;;;;;67.68;29.10;;;4.70;99.90;;;;;;5032614;28;20056;-66
2021/03/10 05:25:13;;;;;;;63.95;26.77;;;4.70;99.90;;;;;;5032616;28;20389;-66
2021/03/10 05:27:39;;;;;;;62.17;26.92;;;4.70;99.90;;;;;;5032817;28;20025;-66
2021/03/10 05:30:08;;;;;;;65.43;28.25;;;4.80;99.90;;;;;;5032181;28;20033;-66
2021/03/10 05:32:35;;;;;;;73.80;29.23;;;4.90;99.90;;;;;;5032515;28;20104;-66
2021/03/10 05:35:01;;;;;;;70.53;28.50;;;4.90;99.90;;;;;;5032261;28;20033;-66
2021/03/10 05:37:27;;;;;;;66.93;26.98;;;4.90;99.90;;;;;;5014996;28;20026;-68
2021/03/10 05:39:53;;;;;;;76.47;28.05;;;4.90;99.90;;;;;;5032512;28;20029;-67
2021/03/10 05:42:19;;;;;;;71.88;26.92;;;4.90;99.90;;;;;;5032381;28;20466;-68
2021/03/10 05:44:50;;;;;;;68.68;28.08;;;5.00;99.90;;;;;;4976697;28;20034;-68
2021/03/10 05:47:20;;;;;;;65.28;28.52;;;5.10;99.90;;;;;;5012794;28;20525;-68
2021/03/10 05:49:49;;;;;;;60.15;27.60;;;5.10;99.90;;;;;;5011469;28;20030;-67
2021/03/10 05:52:16;;;;;;;68.35;29.02;;;5.00;99.90;;;;;;5012562;28;20033;-68
2021/03/10 05:54:44;;;;;;;60.95;25.77;;;4.90;99.90;;;;;;4978621;28;20044;-67
2021/03/10 05:57:10;;;;;;;61.85;27.05;;;4.90;99.90;;;;;;5012227;28;20040;-68
2021/03/10 05:59:36;;;;;;;63.63;26.58;;;4.90;99.90;;;;;;5012365;28;20065;-69
2021/03/10 06:02:03;;;;;;;59.22;25.73;;;4.80;99.90;;;;;;5012506;28;20034;-68
2021/03/10 06:04:41;;;;;;;65.60;27.08;;;4.80;99.90;;;;;;5012701;28;20034;-68
2021/03/10 06:07:22;;;;;;;64.47;27.05;;;4.80;99.90;;;;;;5011281;28;20041;-68
2021/03/10 06:10:03;;;;;;;62.80;26.55;;;4.70;99.90;;;;;;5012486;28;20034;-68
2021/03/10 06:12:45;;;;;;;;;;;4.70;99.90;;;;;;5012971;28;20030;-69
2021/03/10 06:15:14;;;;;;;62.15;26.02;;;4.80;99.90;;;;;;5014673;28;20362;-68
2021/03/10 06:17:50;;;;;;;69.60;28.00;;;4.70;99.90;;;;;;5012010;28;20566;-69
2021/03/10 06:20:32;;;;;;;68.00;26.83;;;4.70;99.90;;;;;;5011845;28;20473;-68
2021/03/10 06:22:59;;;;;;;66.68;26.10;;;4.70;99.90;;;;;;5011885;28;20081;-68
2021/03/10 06:25:36;;;;;;;61.60;26.25;;;4.80;99.90;;;;;;4998024;28;20026;-67
2021/03/10 06:28:03;;;;;;;66.43;25.38;;;4.80;99.90;;;;;;5015867;28;20390;-69
2021/03/10 06:30:45;;;;;;;65.45;26.80;;;4.90;99.90;;;;;;4998303;28;20042;-69
2021/03/10 06:33:22;;;;;;;57.63;25.98;;;4.90;99.90;;;;;;4998199;28;20034;-67
2021/03/10 06:35:48;;;;;;;59.13;25.52;;;4.90;99.90;;;;;;5015915;28;20045;-68
2021/03/10 06:38:17;;;;;;;69.28;26.42;;;4.90;99.90;;;;;;5015869;28;20034;-68
2021/03/10 06:41:01;;;;;;;66.22;27.85;;;4.90;99.90;;;;;;4998251;28;20042;-67
2021/03/10 06:43:43;;;;;;;66.13;26.25;;;4.90;99.90;;;;;;5012591;28;20083;-68
2021/03/10 06:46:19;;;;;;;69.90;27.33;;;4.90;99.90;;;;;;5032443;28;20041;-68
2021/03/10 06:48:58;;;;;;;72.30;30.40;;;4.90;99.90;;;;;;5001530;28;20621;-68
2021/03/10 06:51:26;;;;;;;69.68;29.58;;;4.90;99.90;;;;;;5001541;28;20407;-68
2021/03/10 06:53:52;;;;;;;62.28;27.88;;;4.90;99.90;;;;;;5032429;28;20021;-69
2021/03/10 06:56:23;;;;;;;84.50;33.88;;;5.00;99.90;;;;;;5035052;28;20029;-69
2021/03/10 06:58:57;;;;;;;;;;;5.20;99.90;;;;;;5018298;28;20083;-68
2021/03/10 07:01:26;;;;;;;120.03;50.35;;;5.30;99.90;;;;;;5035168;28;20008;-68
2021/03/10 07:03:55;;;;;;;73.25;29.38;;;5.30;99.90;;;;;;5017914;28;20065;-68
2021/03/10 07:06:23;;;;;;;64.70;28.75;;;5.30;99.90;;;;;;5035398;28;20048;-68
2021/03/10 07:08:49;;;;;;;65.00;28.20;;;5.30;99.90;;;;;;5035375;28;20053;-67
2021/03/10 07:11:16;;;;;;;67.28;26.13;;;5.20;99.90;;;;;;5034763;28;20037;-67
2021/03/10 07:13:44;;;;;;;65.25;27.35;;;5.40;99.90;;;;;;5017680;28;20490;-68
2021/03/10 07:16:11;;;;;;;63.72;27.35;;;5.30;99.90;;;;;;5000491;28;20199;-67
2021/03/10 07:18:38;;;;;;;65.57;26.67;;;5.30;99.90;;;;;;5015314;28;20036;-67
2021/03/10 07:21:07;;;;;;;68.68;29.48;;;5.30;99.90;;;;;;5015095;28;20100;-68
2021/03/10 07:23:42;;;;;;;69.63;27.42;;;5.30;99.90;;;;;;5014078;28;20034;-67
2021/03/10 07:26:11;;;;;;;65.68;28.10;;;5.30;99.90;;;;;;4997274;28;20061;-68
2021/03/10 07:28:38;;;;;;;64.85;27.17;;;5.30;99.90;;;;;;5015123;28;20029;-68
2021/03/10 07:31:04;;;;;;;66.00;28.58;;;5.30;99.90;;;;;;4996830;28;20052;-68
2021/03/10 07:33:30;;;;;;;65.18;28.17;;;5.30;99.90;;;;;;5014980;28;20030;-68
2021/03/10 07:36:02;;;;;;;61.83;26.60;;;5.40;99.90;;;;;;5014548;28;20101;-68
2021/03/10 07:38:39;;;;;;;68.22;27.27;;;5.50;99.90;;;;;;5014737;28;20030;-68
2021/03/10 07:41:09;;;;;;;68.05;28.73;;;5.50;99.90;;;;;;5014945;28;20077;-68
2021/03/10 07:43:42;;;;;;;63.20;27.73;;;5.50;99.90;;;;;;5013759;28;20438;-67
2021/03/10 07:46:28;;;;;;;68.10;28.25;;;5.60;99.90;;;;;;5031306;28;20041;-68
2021/03/10 07:48:55;;;;;;;59.03;26.50;;;5.80;99.90;;;;;;5034603;28;20034;-67
2021/03/10 07:51:31;;;;;;;67.00;27.55;;;5.70;99.90;;;;;;5034328;28;20068;-68
2021/03/10 07:53:59;;;;;;;61.20;26.73;;;5.80;99.90;;;;;;5034462;28;20037;-67
2021/03/10 07:56:31;;;;;;;65.03;27.67;;;5.80;99.90;;;;;;5034386;28;20529;-67
2021/03/10 07:59:17;;;;;;;62.38;27.63;;;5.90;99.90;;;;;;5034124;28;20038;-67
2021/03/10 08:01:43;;;;;;;57.78;26.80;;;5.90;99.90;;;;;;5034365;28;20057;-68
2021/03/10 08:04:17;;;;;;;60.63;27.42;;;6.00;99.90;;;;;;5034238;28;20057;-68
2021/03/10 08:06:49;;;;;;;63.28;24.77;;;6.10;99.90;;;;;;5034304;28;20025;-67
2021/03/10 08:09:23;;;;;;;54.70;24.90;;;6.10;99.90;;;;;;5033972;28;20069;-68
2021/03/10 08:12:06;;;;;;;57.22;25.75;;;6.10;99.90;;;;;;5017021;28;20033;-68
2021/03/10 08:14:42;;;;;;;57.88;24.38;;;6.20;99.90;;;;;;5030350;28;20034;-68
2021/03/10 08:17:19;;;;;;;59.85;26.20;;;6.40;99.90;;;;;;4996839;28;20394;-67
2021/03/10 08:19:59;;;;;;;57.45;25.15;;;6.50;99.90;;;;;;5014274;28;20104;-68
2021/03/10 08:22:27;;;;;;;54.58;25.20;;;6.60;99.90;;;;;;4996897;28;20125;-68
2021/03/10 08:24:54;;;;;;;60.50;24.90;;;6.50;99.90;;;;;;5014158;28;20568;-67
2021/03/10 08:27:43;;;;;;;56.38;25.20;;;6.60;99.90;;;;;;5013961;28;20037;-68
2021/03/10 08:30:14;;;;;;;61.70;24.77;;;6.70;99.90;;;;;;4979929;28;20042;-68
2021/03/10 08:32:39;;;;;;;55.80;25.30;;;6.70;99.90;;;;;;5013970;28;20030;-68
2021/03/10 08:35:18;;;;;;;51.97;22.33;;;6.90;99.90;;;;;;5013816;28;20030;-68
2021/03/10 08:37:57;;;;;;;52.35;23.92;;;6.80;99.90;;;;;;5013946;28;20470;-67
2021/03/10 08:40:26;;;;;;;54.38;24.65;;;6.90;99.90;;;;;;4996076;28;20034;-68
2021/03/10 08:42:57;;;;;;;54.75;25.65;;;6.90;99.90;;;;;;5013725;28;20033;-68
2021/03/10 08:45:31;;;;;;;;;;;6.90;99.90;;;;;;5006842;28;20386;-68
2021/03/10 08:48:08;;;;;;;52.90;22.92;;;6.90;99.90;;;;;;5021878;28;19944;-69
2021/03/10 08:50:43;;;;;;;53.08;24.55;;;6.80;99.90;;;;;;5022545;28;20032;-67
2021/03/10 08:53:14;;;;;;;56.53;26.13;;;6.80;99.90;;;;;;5011947;28;20044;-67
2021/03/10 08:55:44;;;;;;;54.63;24.52;;;7.00;99.90;;;;;;5033289;28;20022;-67
2021/03/10 08:58:14;;;;;;;52.60;24.85;;;7.20;99.90;;;;;;5033190;28;20049;-67
2021/03/10 09:00:42;;;;;;;59.20;25.17;;;7.20;99.90;;;;;;5015627;28;20119;-67
2021/03/10 09:03:17;;;;;;;53.05;24.48;;;7.50;99.90;;;;;;5032943;28;20040;-68
2021/03/10 09:05:45;;;;;;;51.78;23.70;;;7.70;99.90;;;;;;5016136;28;20410;-68
2021/03/10 09:08:13;;;;;;;51.47;25.15;;;7.70;99.90;;;;;;5033066;28;20142;-68
2021/03/10 09:10:48;;;;;;;54.05;24.10;;;7.50;99.90;;;;;;5015488;28;20036;-68
2021/03/10 09:13:14;;;;;;;48.78;23.85;;;7.30;99.90;;;;;;4998534;28;20484;-68
2021/03/10 09:15:40;;;;;;;53.67;24.27;;;7.50;99.90;;;;;;5019917;28;20044;-68
2021/03/10 09:18:09;;;;;;;54.08;24.50;;;7.60;99.90;;;;;;5012940;28;20115;-69
2021/03/10 09:20:38;;;;;;;46.22;23.23;;;7.60;99.90;;;;;;5012960;28;20037;-68
2021/03/10 09:23:06;;;;;;;49.03;22.70;;;7.60;99.90;;;;;;5012933;28;20050;-68
2021/03/10 09:25:35;;;;;;;46.50;23.10;;;7.70;99.90;;;;;;5013020;28;20038;-68
2021/03/10 09:28:14;;;;;;;44.53;21.42;;;8.00;99.90;;;;;;4995084;28;20018;-68
2021/03/10 09:30:46;;;;;;;49.15;22.08;;;8.10;99.90;;;;;;5012566;28;20045;-68
2021/03/10 09:33:25;;;;;;;47.40;21.30;;;8.00;99.90;;;;;;4995677;28;20041;-68
2021/03/10 09:36:00;;;;;;;36.55;17.85;;;8.20;99.90;;;;;;4995563;28;20041;-68
2021/03/10 09:38:30;;;;;;;40.83;18.83;;;8.40;99.90;;;;;;5012555;28;20026;-67
2021/03/10 09:41:02;;;;;;;38.10;17.52;;;8.50;99.90;;;;;;5012898;28;20312;-68
2021/03/10 09:43:31;;;;;;;40.08;18.05;;;8.70;99.90;;;;;;5012334;28;20038;-68
2021/03/10 09:46:00;;;;;;;42.58;19.25;;;8.80;99.90;;;;;;4994687;28;20132;-68
2021/03/10 09:48:41;;;;;;;33.22;17.60;;;8.80;99.90;;;;;;5012320;28;20730;-68
2021/03/10 09:51:17;;;;;;;27.75;13.43;;;8.80;99.90;;;;;;4996629;28;20478;-67
2021/03/10 09:53:45;;;;;;;32.20;15.63;;;8.80;99.90;;;;;;5012632;28;20053;-66
2021/03/10 09:56:17;;;;;;;33.78;15.65;;;8.90;99.90;;;;;;4994864;28;20069;-68
2021/03/10 09:58:59;;;;;;;32.97;16.30;;;8.90;99.90;;;;;;4994589;28;20034;-68
2021/03/10 10:01:28;;;;;;;28.23;13.50;;;9.10;99.90;;;;;;5012501;28;20088;-68
2021/03/10 10:03:57;;;;;;;27.27;13.85;;;8.90;99.90;;;;;;5012522;28;20402;-67
2021/03/10 10:06:23;;;;;;;26.45;12.07;;;9.10;99.90;;;;;;5012222;28;20066;-67
2021/03/10 10:08:50;;;;;;;26.25;12.77;;;9.30;99.90;;;;;;5012497;28;20419;-66
2021/03/10 10:11:17;;;;;;;30.38;13.55;;;9.30;99.90;;;;;;5012339;28;20030;-67
2021/03/10 10:13:48;;;;;;;25.90;13.38;;;9.20;99.90;;;;;;5012223;28;20030;-68
2021/03/10 10:16:15;;;;;;;;;;;9.60;99.90;;;;;;5030292;28;20489;-68
2021/03/10 10:18:42;;;;;;;24.13;11.70;;;9.50;99.90;;;;;;5032188;28;19920;-67
2021/03/10 10:21:09;;;;;;;25.52;12.75;;;9.50;99.90;;;;;;5032005;28;20095;-66
2021/03/10 10:23:35;;;;;;;23.85;11.65;;;9.60;99.90;;;;;;5032170;28;20524;-68
2021/03/10 10:26:04;;;;;;;25.50;12.45;;;9.80;99.90;;;;;;5013973;28;20033;-68
2021/03/10 10:28:29;;;;;;;27.77;13.18;;;9.80;99.90;;;;;;5032022;28;20030;-69
2021/03/10 10:30:56;;;;;;;28.85;13.35;;;9.90;99.90;;;;;;5013785;28;20148;-69
2021/03/10 10:33:22;;;;;;;30.80;14.02;;;9.90;99.90;;;;;;5014490;28;20061;-68
2021/03/10 10:35:47;;;;;;;25.63;12.35;;;10.00;99.90;;;;;;5031545;28;20061;-69
2021/03/10 10:38:13;;;;;;;21.00;10.35;;;10.20;99.90;;;;;;5031492;28;20045;-69
2021/03/10 10:40:39;;;;;;;25.45;12.38;;;10.20;99.90;;;;;;5014000;28;20037;-70
2021/03/10 10:43:05;;;;;;;24.95;12.25;;;10.20;99.90;;;;;;5032038;28;20501;-70
2021/03/10 10:45:31;;;;;;;26.08;13.05;;;10.00;99.90;;;;;;5019700;28;20062;-69
2021/03/10 10:47:57;;;;;;;20.15;9.82;;;10.20;99.90;;;;;;5012214;28;20038;-69
2021/03/10 10:50:23;;;;;;;14.77;7.55;;;10.30;99.90;;;;;;5011872;28;20045;-69
2021/03/10 10:52:49;;;;;;;18.67;8.52;;;10.30;99.70;;;;;;5012114;28;20505;-68
2021/03/10 10:55:18;;;;;;;17.77;8.98;;;10.30;99.90;;;;;;5011942;28;20025;-68
2021/03/10 10:57:45;;;;;;;17.02;8.00;;;10.20;99.90;;;;;;5014512;28;20034;-69
2021/03/10 11:00:18;;;;;;;15.00;7.25;;;10.00;99.90;;;;;;5011575;28;20489;-68
2021/03/10 11:02:45;;;;;;;17.15;7.60;;;10.00;98.50;;;;;;4994222;28;20037;-69
2021/03/10 11:05:12;;;;;;;14.90;6.93;;;10.20;97.90;;;;;;4994121;28;20128;-69
2021/03/10 11:07:38;;;;;;;19.33;9.70;;;10.30;99.20;;;;;;5011998;28;20041;-69
2021/03/10 11:10:07;;;;;;;22.63;9.57;;;10.40;99.90;;;;;;4994821;28;20108;-68
2021/03/10 11:12:33;;;;;;;20.20;9.20;;;10.50;98.90;;;;;;5015440;28;20030;-68
2021/03/10 11:15:00;;;;;;;18.42;9.07;;;10.40;99.00;;;;;;4997814;28;20034;-68
2021/03/10 11:17:26;;;;;;;20.55;9.70;;;10.40;99.90;;;;;;4997498;28;20137;-69
2021/03/10 11:19:52;;;;;;;18.58;10.35;;;10.30;99.90;;;;;;5015240;28;20108;-69
2021/03/10 11:22:18;;;;;;;20.52;9.63;;;10.30;99.90;;;;;;5014987;28;20391;-69
2021/03/10 11:24:44;;;;;;;19.45;9.60;;;10.60;99.90;;;;;;4997716;28;20037;-69
2021/03/10 11:27:10;;;;;;;19.63;9.35;;;10.60;99.90;;;;;;5014967;28;20430;-69
2021/03/10 11:29:36;;;;;;;17.63;8.18;;;10.80;98.90;;;;;;5015097;28;20038;-68
2021/03/10 11:32:01;;;;;;;15.02;7.85;;;10.90;99.00;;;;;;5014418;28;20048;-68
2021/03/10 11:34:29;;;;;;;13.77;6.53;;;11.00;96.40;;;;;;5014910;28;20124;-69
2021/03/10 11:36:55;;;;;;;13.48;5.75;;;11.10;95.40;;;;;;5014719;28;20390;-69
2021/03/10 11:39:22;;;;;;;10.80;5.50;;;11.00;94.10;;;;;;5014869;28;20538;-69
2021/03/10 11:41:48;;;;;;;13.20;6.32;;;10.90;95.10;;;;;;5014949;28;20040;-70
2021/03/10 11:44:13;;;;;;;16.75;8.00;;;11.10;95.00;;;;;;5016042;28;20029;-69
2021/03/10 11:46:39;;;;;;;17.60;8.50;;;11.00;96.60;;;;;;5034531;28;20104;-69
2021/03/10 11:49:05;;;;;;;15.35;7.47;;;11.00;96.60;;;;;;5034698;28;20025;-69
2021/03/10 11:51:32;;;;;;;20.65;9.95;;;11.40;94.90;;;;;;5034379;28;20030;-69
2021/03/10 11:53:58;;;;;;;17.55;8.43;;;11.50;96.00;;;;;;5034503;28;20033;-69
2021/03/10 11:56:23;;;;;;;16.65;8.10;;;11.60;96.00;;;;;;5034288;28;20105;-68
2021/03/10 11:58:49;;;;;;;16.60;7.75;;;11.20;95.00;;;;;;5034031;28;20125;-69
2021/03/10 12:01:15;;;;;;;15.13;6.90;;;10.90;95.60;;;;;;5034006;28;20061;-69
2021/03/10 12:03:42;;;;;;;15.00;7.53;;;10.60;95.90;;;;;;5034263;28;20116;-68
2021/03/10 12:06:08;;;;;;;17.10;8.13;;;10.60;97.10;;;;;;5034239;28;20480;-69
2021/03/10 12:08:34;;;;;;;23.20;9.10;;;10.60;96.60;;;;;;5033941;28;20029;-69
2021/03/10 12:11:00;;;;;;;16.23;7.72;;;10.50;98.00;;;;;;5033992;28;20041;-69
2021/03/10 12:13:27;;;;;;;16.00;7.95;;;10.30;97.30;;;;;;5034068;28;20099;-70
2021/03/10 12:15:55;;;;;;;15.25;7.10;;;10.40;98.40;;;;;;5000169;28;20048;-69
2021/03/10 12:18:22;;;;;;;14.73;7.03;;;10.50;95.80;;;;;;5014189;28;20041;-70
2021/03/10 12:20:48;;;;;;;15.13;7.82;;;10.30;97.10;;;;;;4996517;28;20152;-68
2021/03/10 12:23:16;;;;;;;14.32;6.63;;;10.30;97.30;;;;;;4996205;28;20034;-69
2021/03/10 12:25:43;;;;;;;14.95;6.82;;;10.40;96.40;;;;;;4996205;28;20057;-69
2021/03/10 12:28:09;;;;;;;16.08;7.60;;;10.40;97.00;;;;;;5013943;28;20057;-69
2021/03/10 12:30:35;;;;;;;15.77;7.70;;;10.40;96.50;;;;;;5013546;28;20600;-69
2021/03/10 12:33:00;;;;;;;16.67;8.45;;;10.30;97.00;;;;;;4996095;28;20038;-69
2021/03/10 12:35:28;;;;;;;17.27;7.88;;;10.20;96.20;;;;;;5013712;28;20043;-68
2021/03/10 12:37:54;;;;;;;19.63;9.57;;;10.30;96.90;;;;;;5013785;28;20058;-69
2021/03/10 12:40:22;;;;;;;15.38;8.57;;;10.40;97.40;;;;;;5013627;28;20151;-69
2021/03/10 12:42:48;;;;;;;21.63;10.13;;;10.40;98.50;;;;;;4996413;28;20065;-69
2021/03/10 12:45:14;;;;;;;20.73;10.50;;;10.50;98.10;;;;;;5005662;28;20065;-69
2021/03/10 12:47:39;;;;;;;22.33;10.18;;;10.40;98.50;;;;;;4999032;28;20029;-70
2021/03/10 12:50:06;;;;;;;21.23;10.45;;;10.10;99.20;;;;;;5030244;28;20040;-70